Terminal Aerodrome Forecast
Issued by NWS

Home | Current Version | Previous Version | Text Only | Print | Product List | Glossary On
Versions: 1 2 3 4 5 6 7 8 9 10 11 12 13 14 15 16 17
000
FTUS45 KABQ 300527
TAFTCC
TAF
KTCC 300527Z 3006/0106 05004KT P6SM OVC020
     FM301000 VRB03KT P6SM OVC007
     FM301500 06005KT P6SM BKN025
     FM301800 07006KT P6SM BKN050
     FM010000 07013KT P6SM OVC050
     FM010300 05022G32KT P6SM OVC020=

USA.gov is the U.S. government's official web portal to all federal, state and local government web resources and services.